sensor_id;sensor_type;location;lat;lon;timestamp;pressure;altitude;pressure_sealevel;temperature;humidity
13695;BME280;6919;52.344;14.518;2024-02-21T00:00:33;101237.81;;;10.53;100.00
13695;BME280;6919;52.344;14.518;2024-02-21T00:03:01;101239.34;;;10.46;100.00
13695;BME280;6919;52.344;14.518;2024-02-21T00:05:31;101228.63;;;10.46;100.00
13695;BME280;6919;52.344;14.518;2024-02-21T00:07:59;101225.97;;;10.56;100.00
13695;BME280;6919;52.344;14.518;2024-02-21T00:10:28;101225.09;;;10.46;100.00
13695;BME280;6919;52.344;14.518;2024-02-21T00:13:00;101221.56;;;10.45;100.00
13695;BME280;6919;52.344;14.518;2024-02-21T00:15:28;101223.13;;;10.38;100.00
13695;BME280;6919;52.344;14.518;2024-02-21T00:17:56;101224.94;;;10.47;100.00
13695;BME280;6919;52.344;14.518;2024-02-21T00:20:24;101213.63;;;10.34;100.00
13695;BME280;6919;52.344;14.518;2024-02-21T00:22:53;101212.47;;;10.27;100.00
13695;BME280;6919;52.344;14.518;2024-02-21T00:25:22;101212.59;;;10.16;100.00
13695;BME280;6919;52.344;14.518;2024-02-21T00:27:50;101210.75;;;10.07;100.00
13695;BME280;6919;52.344;14.518;2024-02-21T00:30:22;101206.56;;;10.33;100.00
13695;BME280;6919;52.344;14.518;2024-02-21T00:32:50;101199.94;;;10.28;100.00
13695;BME280;6919;52.344;14.518;2024-02-21T00:35:18;101201.94;;;10.35;100.00
13695;BME280;6919;52.344;14.518;2024-02-21T00:37:46;101197.41;;;10.36;100.00
13695;BME280;6919;52.344;14.518;2024-02-21T00:40:15;101196.97;;;10.31;100.00
13695;BME280;6919;52.344;14.518;2024-02-21T00:42:47;101188.94;;;10.21;100.00
13695;BME280;6919;52.344;14.518;2024-02-21T00:45:15;101184.25;;;10.23;100.00
13695;BME280;6919;52.344;14.518;2024-02-21T00:47:45;101181.44;;;10.25;100.00
13695;BME280;6919;52.344;14.518;2024-02-21T00:50:13;101180.91;;;10.40;100.00
13695;BME280;6919;52.344;14.518;2024-02-21T00:52:41;101184.84;;;10.27;100.00
13695;BME280;6919;52.344;14.518;2024-02-21T00:55:10;101182.72;;;10.30;100.00
13695;BME280;6919;52.344;14.518;2024-02-21T00:57:39;101184.97;;;10.25;100.00
13695;BME280;6919;52.344;14.518;2024-02-21T01:00:08;101172.56;;;10.24;100.00
13695;BME280;6919;52.344;14.518;2024-02-21T01:02:37;101164.56;;;10.34;100.00
13695;BME280;6919;52.344;14.518;2024-02-21T01:05:07;101166.22;;;10.25;100.00
13695;BME280;6919;52.344;14.518;2024-02-21T01:07:36;101169.56;;;10.08;100.00
13695;BME280;6919;52.344;14.518;2024-02-21T01:10:06;101161.53;;;10.08;100.00
13695;BME280;6919;52.344;14.518;2024-02-21T01:12:34;101157.06;;;9.88;100.00
13695;BME280;6919;52.344;14.518;2024-02-21T01:15:03;101156.50;;;10.24;100.00
13695;BME280;6919;52.344;14.518;2024-02-21T01:17:31;101142.66;;;10.19;100.00
13695;BME280;6919;52.344;14.518;2024-02-21T01:20:00;101140.09;;;10.18;100.00
13695;BME280;6919;52.344;14.518;2024-02-21T01:22:30;101139.44;;;10.35;100.00
13695;BME280;6919;52.344;14.518;2024-02-21T01:24:58;101138.88;;;10.31;100.00
13695;BME280;6919;52.344;14.518;2024-02-21T01:27:27;101136.03;;;10.23;100.00
13695;BME280;6919;52.344;14.518;2024-02-21T01:29:55;101127.75;;;10.45;100.00
13695;BME280;6919;52.344;14.518;2024-02-21T01:32:23;101128.72;;;10.35;100.00
13695;BME280;6919;52.344;14.518;2024-02-21T01:34:52;101123.75;;;10.30;100.00
13695;BME280;6919;52.344;14.518;2024-02-21T01:37:20;101111.75;;;10.06;100.00
13695;BME280;6919;52.344;14.518;2024-02-21T01:39:50;101120.13;;;10.31;100.00
13695;BME280;6919;52.344;14.518;2024-02-21T01:42:18;101120.94;;;10.22;100.00
13695;BME280;6919;52.344;14.518;2024-02-21T01:44:46;101116.97;;;10.17;100.00
13695;BME280;6919;52.344;14.518;2024-02-21T01:47:15;101119.66;;;10.36;100.00
13695;BME280;6919;52.344;14.518;2024-02-21T01:49:43;101111.47;;;10.09;100.00
13695;BME280;6919;52.344;14.518;2024-02-21T01:52:14;101113.31;;;10.27;100.00
13695;BME280;6919;52.344;14.518;2024-02-21T01:54:46;101111.75;;;10.15;100.00
13695;BME280;6919;52.344;14.518;2024-02-21T01:57:17;101115.47;;;9.94;100.00
13695;BME280;6919;52.344;14.518;2024-02-21T01:59:45;101107.09;;;10.08;100.00
13695;BME280;6919;52.344;14.518;2024-02-21T02:02:14;101103.22;;;10.01;100.00
13695;BME280;6919;52.344;14.518;2024-02-21T02:04:44;101101.78;;;9.78;100.00
13695;BME280;6919;52.344;14.518;2024-02-21T02:07:13;101097.94;;;9.61;100.00
13695;BME280;6919;52.344;14.518;2024-02-21T02:09:42;101095.63;;;9.96;100.00
13695;BME280;6919;52.344;14.518;2024-02-21T02:12:10;101091.38;;;9.94;100.00
13695;BME280;6919;52.344;14.518;2024-02-21T02:14:40;101087.72;;;9.95;100.00
13695;BME280;6919;52.344;14.518;2024-02-21T02:17:08;101088.31;;;10.08;100.00
13695;BME280;6919;52.344;14.518;2024-02-21T02:19:37;101089.78;;;10.12;100.00
13695;BME280;6919;52.344;14.518;2024-02-21T02:22:14;101085.59;;;9.98;100.00
13695;BME280;6919;52.344;14.518;2024-02-21T02:24:46;101078.19;;;10.11;100.00
13695;BME280;6919;52.344;14.518;2024-02-21T02:27:14;101072.84;;;10.21;100.00
13695;BME280;6919;52.344;14.518;2024-02-21T02:29:42;101073.97;;;10.09;100.00
13695;BME280;6919;52.344;14.518;2024-02-21T02:32:10;101073.66;;;10.50;100.00
13695;BME280;6919;52.344;14.518;2024-02-21T02:34:39;101069.59;;;10.27;100.00
13695;BME280;6919;52.344;14.518;2024-02-21T02:37:07;101066.19;;;10.15;100.00
13695;BME280;6919;52.344;14.518;2024-02-21T02:39:35;101064.09;;;10.19;100.00
13695;BME280;6919;52.344;14.518;2024-02-21T02:42:05;101060.97;;;10.23;100.00
13695;BME280;6919;52.344;14.518;2024-02-21T02:44:33;101068.34;;;10.21;100.00
13695;BME280;6919;52.344;14.518;2024-02-21T02:47:02;101065.78;;;10.29;100.00
13695;BME280;6919;52.344;14.518;2024-02-21T02:49:30;101064.09;;;10.28;100.00
13695;BME280;6919;52.344;14.518;2024-02-21T02:51:59;101055.91;;;10.20;100.00
13695;BME280;6919;52.344;14.518;2024-02-21T02:54:27;101050.13;;;10.25;100.00
13695;BME280;6919;52.344;14.518;2024-02-21T02:56:55;101048.31;;;10.25;100.00
13695;BME280;6919;52.344;14.518;2024-02-21T02:59:24;101048.97;;;10.56;100.00
13695;BME280;6919;52.344;14.518;2024-02-21T03:01:52;101048.03;;;10.28;100.00
13695;BME280;6919;52.344;14.518;2024-02-21T03:04:20;101045.91;;;10.22;100.00
13695;BME280;6919;52.344;14.518;2024-02-21T03:06:49;101036.16;;;10.21;100.00
13695;BME280;6919;52.344;14.518;2024-02-21T03:09:18;101043.22;;;10.32;100.00
13695;BME280;6919;52.344;14.518;2024-02-21T03:11:46;101038.97;;;10.39;100.00
13695;BME280;6919;52.344;14.518;2024-02-21T03:14:15;101035.75;;;10.35;100.00
13695;BME280;6919;52.344;14.518;2024-02-21T03:16:45;101029.09;;;10.20;100.00
13695;BME280;6919;52.344;14.518;2024-02-21T03:19:13;101032.63;;;10.30;100.00
13695;BME280;6919;52.344;14.518;2024-02-21T03:21:41;101027.69;;;10.07;100.00
13695;BME280;6919;52.344;14.518;2024-02-21T03:24:09;101031.91;;;10.09;100.00
13695;BME280;6919;52.344;14.518;2024-02-21T03:26:38;101024.31;;;10.24;100.00
13695;BME280;6919;52.344;14.518;2024-02-21T03:29:07;101018.69;;;10.17;100.00
13695;BME280;6919;52.344;14.518;2024-02-21T03:31:35;101019.53;;;10.08;100.00
13695;BME280;6919;52.344;14.518;2024-02-21T03:34:05;101029.69;;;10.14;100.00
13695;BME280;6919;52.344;14.518;2024-02-21T03:36:34;101033.63;;;10.10;100.00
13695;BME280;6919;52.344;14.518;2024-02-21T03:39:02;101030.91;;;10.01;100.00
13695;BME280;6919;52.344;14.518;2024-02-21T03:41:31;101030.63;;;9.94;100.00
13695;BME280;6919;52.344;14.518;2024-02-21T03:43:59;101025.72;;;10.18;100.00
13695;BME280;6919;52.344;14.518;2024-02-21T03:46:27;101019.53;;;10.08;100.00
13695;BME280;6919;52.344;14.518;2024-02-21T03:48:56;101019.94;;;10.13;100.00
13695;BME280;6919;52.344;14.518;2024-02-21T03:51:25;101020.25;;;10.10;100.00
13695;BME280;6919;52.344;14.518;2024-02-21T03:53:54;101015.56;;;10.22;100.00
13695;BME280;6919;52.344;14.518;2024-02-21T03:56:22;101010.22;;;10.31;100.00
13695;BME280;6919;52.344;14.518;2024-02-21T03:58:50;101011.63;;;10.07;100.00
13695;BME280;6919;52.344;14.518;2024-02-21T04:01:19;101003.72;;;10.24;100.00
13695;BME280;6919;52.344;14.518;2024-02-21T04:03:47;101005.28;;;10.17;100.00
13695;BME280;6919;52.344;14.518;2024-02-21T04:06:15;100999.47;;;10.41;100.00
13695;BME280;6919;52.344;14.518;2024-02-21T04:08:45;100990.75;;;10.20;100.00
13695;BME280;6919;52.344;14.518;2024-02-21T04:11:13;100990.75;;;10.10;100.00
13695;BME280;6919;52.344;14.518;2024-02-21T04:13:42;100996.38;;;9.98;100.00
13695;BME280;6919;52.344;14.518;2024-02-21T04:16:10;100992.44;;;10.02;100.00
13695;BME280;6919;52.344;14.518;2024-02-21T04:18:40;100990.31;;;10.15;100.00
13695;BME280;6919;52.344;14.518;2024-02-21T04:21:08;100990.44;;;9.94;100.00
13695;BME280;6919;52.344;14.518;2024-02-21T04:23:39;100995.34;;;9.80;100.00
13695;BME280;6919;52.344;14.518;2024-02-21T04:26:09;100979.00;;;9.83;100.00
13695;BME280;6919;52.344;14.518;2024-02-21T04:28:37;100977.19;;;9.83;100.00
13695;BME280;6919;52.344;14.518;2024-02-21T04:31:06;100979.19;;;9.91;100.00
13695;BME280;6919;52.344;14.518;2024-02-21T04:33:34;100972.66;;;9.55;100.00
13695;BME280;6919;52.344;14.518;2024-02-21T04:36:03;100970.28;;;9.71;100.00
13695;BME280;6919;52.344;14.518;2024-02-21T04:38:32;100974.06;;;9.69;100.00
13695;BME280;6919;52.344;14.518;2024-02-21T04:41:00;100963.06;;;9.62;100.00
13695;BME280;6919;52.344;14.518;2024-02-21T04:43:30;100955.59;;;9.56;100.00
13695;BME280;6919;52.344;14.518;2024-02-21T04:46:01;100947.31;;;9.78;100.00
13695;BME280;6919;52.344;14.518;2024-02-21T04:48:29;100951.09;;;9.66;100.00
13695;BME280;6919;52.344;14.518;2024-02-21T04:50:57;100950.41;;;9.74;100.00
13695;BME280;6919;52.344;14.518;2024-02-21T04:53:25;100938.28;;;9.79;100.00
13695;BME280;6919;52.344;14.518;2024-02-21T04:55:53;100939.13;;;9.70;100.00
13695;BME280;6919;52.344;14.518;2024-02-21T04:58:22;100934.59;;;9.90;100.00
13695;BME280;6919;52.344;14.518;2024-02-21T05:00:52;100944.91;;;9.75;100.00
13695;BME280;6919;52.344;14.518;2024-02-21T05:03:21;100936.72;;;9.48;100.00
13695;BME280;6919;52.344;14.518;2024-02-21T05:05:50;100933.34;;;9.65;100.00
13695;BME280;6919;52.344;14.518;2024-02-21T05:08:18;100932.34;;;9.76;100.00
13695;BME280;6919;52.344;14.518;2024-02-21T05:10:46;100924.75;;;9.81;100.00
13695;BME280;6919;52.344;14.518;2024-02-21T05:13:14;100915.16;;;9.69;100.00
13695;BME280;6919;52.344;14.518;2024-02-21T05:15:43;100910.50;;;9.90;100.00
13695;BME280;6919;52.344;14.518;2024-02-21T05:18:12;100903.75;;;9.76;100.00
13695;BME280;6919;52.344;14.518;2024-02-21T05:20:41;100897.53;;;9.95;100.00
13695;BME280;6919;52.344;14.518;2024-02-21T05:23:09;100885.25;;;10.02;100.00
13695;BME280;6919;52.344;14.518;2024-02-21T05:25:37;100881.91;;;9.81;100.00
13695;BME280;6919;52.344;14.518;2024-02-21T05:28:06;100886.41;;;9.90;100.00
13695;BME280;6919;52.344;14.518;2024-02-21T05:30:34;100887.53;;;9.78;100.00
13695;BME280;6919;52.344;14.518;2024-02-21T05:33:05;100887.09;;;10.01;100.00
13695;BME280;6919;52.344;14.518;2024-02-21T05:35:35;100890.94;;;9.89;100.00
13695;BME280;6919;52.344;14.518;2024-02-21T05:38:04;100899.81;;;9.71;100.00
13695;BME280;6919;52.344;14.518;2024-02-21T05:40:38;100906.28;;;9.78;100.00
13695;BME280;6919;52.344;14.518;2024-02-21T05:43:07;100921.63;;;9.76;100.00
13695;BME280;6919;52.344;14.518;2024-02-21T05:45:36;100906.31;;;9.68;100.00
13695;BME280;6919;52.344;14.518;2024-02-21T05:48:05;100905.44;;;9.77;100.00
13695;BME280;6919;52.344;14.518;2024-02-21T05:50:35;100901.50;;;9.72;100.00
13695;BME280;6919;52.344;14.518;2024-02-21T05:53:03;100900.50;;;9.63;100.00
13695;BME280;6919;52.344;14.518;2024-02-21T05:55:31;100906.56;;;9.84;100.00
13695;BME280;6919;52.344;14.518;2024-02-21T05:58:00;100905.56;;;9.95;100.00
13695;BME280;6919;52.344;14.518;2024-02-21T06:00:29;100909.53;;;10.00;100.00
13695;BME280;6919;52.344;14.518;2024-02-21T06:02:58;100906.16;;;9.79;100.00
13695;BME280;6919;52.344;14.518;2024-02-21T06:05:26;100904.16;;;10.00;100.00
13695;BME280;6919;52.344;14.518;2024-02-21T06:07:56;100902.28;;;10.29;100.00
13695;BME280;6919;52.344;14.518;2024-02-21T06:10:24;100891.78;;;10.09;100.00
13695;BME280;6919;52.344;14.518;2024-02-21T06:12:53;100901.34;;;9.92;100.00
13695;BME280;6919;52.344;14.518;2024-02-21T06:15:21;100893.59;;;9.99;100.00
13695;BME280;6919;52.344;14.518;2024-02-21T06:17:49;100874.41;;;10.03;100.00
13695;BME280;6919;52.344;14.518;2024-02-21T06:20:18;100889.63;;;10.03;100.00
13695;BME280;6919;52.344;14.518;2024-02-21T06:22:46;100875.34;;;10.31;100.00
13695;BME280;6919;52.344;14.518;2024-02-21T06:25:16;100877.78;;;10.15;100.00
13695;BME280;6919;52.344;14.518;2024-02-21T06:27:44;100877.53;;;10.08;100.00
13695;BME280;6919;52.344;14.518;2024-02-21T06:30:13;100886.56;;;10.07;100.00
13695;BME280;6919;52.344;14.518;2024-02-21T06:32:42;100893.16;;;10.03;100.00
13695;BME280;6919;52.344;14.518;2024-02-21T06:35:10;100889.78;;;10.01;100.00
13695;BME280;6919;52.344;14.518;2024-02-21T06:37:39;100887.66;;;10.05;100.00
13695;BME280;6919;52.344;14.518;2024-02-21T06:40:08;100884.84;;;9.87;100.00
13695;BME280;6919;52.344;14.518;2024-02-21T06:42:38;100887.81;;;9.84;100.00
13695;BME280;6919;52.344;14.518;2024-02-21T06:45:07;100887.53;;;9.87;100.00
13695;BME280;6919;52.344;14.518;2024-02-21T06:47:35;100883.88;;;10.07;100.00
13695;BME280;6919;52.344;14.518;2024-02-21T06:50:05;100876.50;;;10.00;100.00
13695;BME280;6919;52.344;14.518;2024-02-21T06:52:33;100877.91;;;10.23;100.00
13695;BME280;6919;52.344;14.518;2024-02-21T06:55:02;100874.66;;;10.19;100.00
13695;BME280;6919;52.344;14.518;2024-02-21T06:57:30;100870.88;;;10.12;100.00
13695;BME280;6919;52.344;14.518;2024-02-21T07:00:00;100862.84;;;10.12;100.00
13695;BME280;6919;52.344;14.518;2024-02-21T07:02:28;100860.72;;;10.06;100.00
13695;BME280;6919;52.344;14.518;2024-02-21T07:04:56;100861.56;;;10.26;100.00
13695;BME280;6919;52.344;14.518;2024-02-21T07:07:25;100864.50;;;10.04;100.00
13695;BME280;6919;52.344;14.518;2024-02-21T07:09:53;100864.41;;;9.86;100.00
13695;BME280;6919;52.344;14.518;2024-02-21T07:12:21;100879.19;;;10.00;100.00
13695;BME280;6919;52.344;14.518;2024-02-21T07:14:49;100879.06;;;10.01;100.00
13695;BME280;6919;52.344;14.518;2024-02-21T07:17:20;100884.00;;;9.96;100.00
13695;BME280;6919;52.344;14.518;2024-02-21T07:19:49;100872.84;;;10.01;100.00
13695;BME280;6919;52.344;14.518;2024-02-21T07:22:17;100870.72;;;10.04;100.00
13695;BME280;6919;52.344;14.518;2024-02-21T07:24:45;100869.47;;;10.08;100.00
13695;BME280;6919;52.344;14.518;2024-02-21T07:27:15;100869.56;;;10.35;100.00
13695;BME280;6919;52.344;14.518;2024-02-21T07:29:43;100866.59;;;10.29;100.00
13695;BME280;6919;52.344;14.518;2024-02-21T07:32:14;100867.06;;;10.24;100.00
13695;BME280;6919;52.344;14.518;2024-02-21T07:34:44;100863.09;;;10.28;100.00
13695;BME280;6919;52.344;14.518;2024-02-21T07:37:13;100853.13;;;10.11;100.00
13695;BME280;6919;52.344;14.518;2024-02-21T07:39:41;100857.44;;;10.31;100.00
13695;BME280;6919;52.344;14.518;2024-02-21T07:42:10;100858.44;;;10.21;100.00
13695;BME280;6919;52.344;14.518;2024-02-21T07:44:38;100860.31;;;10.11;100.00
13695;BME280;6919;52.344;14.518;2024-02-21T07:47:06;100856.19;;;10.16;100.00
13695;BME280;6919;52.344;14.518;2024-02-21T07:49:41;100852.91;;;10.32;100.00
13695;BME280;6919;52.344;14.518;2024-02-21T07:52:11;100846.91;;;10.11;100.00
13695;BME280;6919;52.344;14.518;2024-02-21T07:54:40;100861.84;;;10.04;100.00
13695;BME280;6919;52.344;14.518;2024-02-21T07:57:08;100859.31;;;10.02;100.00
13695;BME280;6919;52.344;14.518;2024-02-21T07:59:37;100856.94;;;10.09;100.00
13695;BME280;6919;52.344;14.518;2024-02-21T08:02:05;100860.84;;;10.24;100.00
13695;BME280;6919;52.344;14.518;2024-02-21T08:04:34;100866.09;;;10.16;100.00
13695;BME280;6919;52.344;14.518;2024-02-21T08:07:03;100861.69;;;10.15;100.00
13695;BME280;6919;52.344;14.518;2024-02-21T08:09:33;100870.59;;;10.15;100.00
13695;BME280;6919;52.344;14.518;2024-02-21T08:12:02;100871.31;;;10.17;100.00
13695;BME280;6919;52.344;14.518;2024-02-21T08:14:30;100867.19;;;10.23;100.00
13695;BME280;6919;52.344;14.518;2024-02-21T08:16:58;100860.59;;;9.98;100.00
13695;BME280;6919;52.344;14.518;2024-02-21T08:19:27;100847.88;;;10.19;100.00
13695;BME280;6919;52.344;14.518;2024-02-21T08:21:55;100844.19;;;10.20;100.00
13695;BME280;6919;52.344;14.518;2024-02-21T08:24:23;100845.09;;;10.48;100.00
13695;BME280;6919;52.344;14.518;2024-02-21T08:26:53;100847.69;;;10.30;100.00
13695;BME280;6919;52.344;14.518;2024-02-21T08:29:21;100849.97;;;10.25;100.00
13695;BME280;6919;52.344;14.518;2024-02-21T08:31:49;100840.56;;;10.48;100.00
13695;BME280;6919;52.344;14.518;2024-02-21T08:34:18;100831.03;;;10.36;100.00
13695;BME280;6919;52.344;14.518;2024-02-21T08:36:46;100836.63;;;10.52;100.00
13695;BME280;6919;52.344;14.518;2024-02-21T08:39:14;100829.81;;;10.58;100.00
13695;BME280;6919;52.344;14.518;2024-02-21T08:41:44;100830.31;;;10.34;100.00
13695;BME280;6919;52.344;14.518;2024-02-21T08:44:27;100834.09;;;10.51;100.00
13695;BME280;6919;52.344;14.518;2024-02-21T08:46:55;100834.75;;;10.53;100.00
13695;BME280;6919;52.344;14.518;2024-02-21T08:49:24;100841.16;;;10.69;100.00
13695;BME280;6919;52.344;14.518;2024-02-21T08:52:01;100839.97;;;10.54;100.00
13695;BME280;6919;52.344;14.518;2024-02-21T08:54:31;100843.63;;;10.63;100.00
13695;BME280;6919;52.344;14.518;2024-02-21T08:56:59;100833.22;;;10.50;100.00
13695;BME280;6919;52.344;14.518;2024-02-21T08:59:29;100833.63;;;10.55;100.00
13695;BME280;6919;52.344;14.518;2024-02-21T09:01:57;100830.16;;;10.72;100.00
13695;BME280;6919;52.344;14.518;2024-02-21T09:04:25;100828.56;;;10.79;100.00
13695;BME280;6919;52.344;14.518;2024-02-21T09:06:54;100835.66;;;10.71;100.00
13695;BME280;6919;52.344;14.518;2024-02-21T09:09:22;100835.56;;;10.90;100.00
13695;BME280;6919;52.344;14.518;2024-02-21T09:11:54;100830.72;;;10.93;100.00
13695;BME280;6919;52.344;14.518;2024-02-21T09:14:23;100834.41;;;10.92;100.00
13695;BME280;6919;52.344;14.518;2024-02-21T09:16:52;100829.13;;;11.00;100.00
13695;BME280;6919;52.344;14.518;2024-02-21T09:19:22;100820.19;;;11.09;100.00
13695;BME280;6919;52.344;14.518;2024-02-21T09:21:50;100820.44;;;10.89;100.00
13695;BME280;6919;52.344;14.518;2024-02-21T09:24:18;100819.63;;;10.88;100.00
13695;BME280;6919;52.344;14.518;2024-02-21T09:26:47;100824.69;;;11.26;100.00
13695;BME280;6919;52.344;14.518;2024-02-21T09:29:15;100820.09;;;11.19;100.00
13695;BME280;6919;52.344;14.518;2024-02-21T09:31:44;100822.09;;;11.34;100.00
13695;BME280;6919;52.344;14.518;2024-02-21T09:34:14;100824.81;;;11.60;100.00
13695;BME280;6919;52.344;14.518;2024-02-21T09:36:42;100819.09;;;11.55;100.00
13695;BME280;6919;52.344;14.518;2024-02-21T09:39:11;100815.84;;;11.86;100.00
13695;BME280;6919;52.344;14.518;2024-02-21T09:41:49;100817.16;;;11.47;100.00
13695;BME280;6919;52.344;14.518;2024-02-21T09:44:20;100820.03;;;11.28;100.00
13695;BME280;6919;52.344;14.518;2024-02-21T09:46:56;100819.13;;;11.37;100.00
13695;BME280;6919;52.344;14.518;2024-02-21T09:49:31;100808.97;;;11.49;100.00
13695;BME280;6919;52.344;14.518;2024-02-21T09:52:02;100813.97;;;11.61;100.00
13695;BME280;6919;52.344;14.518;2024-02-21T09:54:33;100814.72;;;11.36;100.00
13695;BME280;6919;52.344;14.518;2024-02-21T09:57:02;100808.06;;;11.05;100.00
13695;BME280;6919;52.344;14.518;2024-02-21T09:59:32;100815.69;;;11.62;100.00
13695;BME280;6919;52.344;14.518;2024-02-21T10:02:01;100810.56;;;11.42;100.00
13695;BME280;6919;52.344;14.518;2024-02-21T10:04:31;100803.34;;;11.60;100.00
13695;BME280;6919;52.344;14.518;2024-02-21T10:07:00;100802.13;;;11.54;100.00
13695;BME280;6919;52.344;14.518;2024-02-21T10:09:29;100795.81;;;11.81;100.00
13695;BME280;6919;52.344;14.518;2024-02-21T10:12:08;100794.16;;;11.45;100.00
13695;BME280;6919;52.344;14.518;2024-02-21T10:14:37;100791.88;;;11.67;100.00
13695;BME280;6919;52.344;14.518;2024-02-21T10:17:06;100790.75;;;12.04;100.00
13695;BME280;6919;52.344;14.518;2024-02-21T10:19:39;100788.88;;;11.70;100.00
13695;BME280;6919;52.344;14.518;2024-02-21T10:22:08;100792.97;;;11.82;100.00
13695;BME280;6919;52.344;14.518;2024-02-21T10:24:38;100797.53;;;11.64;100.00
13695;BME280;6919;52.344;14.518;2024-02-21T10:27:10;100806.16;;;11.68;100.00
13695;BME280;6919;52.344;14.518;2024-02-21T10:29:40;100800.56;;;12.13;100.00
13695;BME280;6919;52.344;14.518;2024-02-21T10:32:11;100795.31;;;12.03;100.00
13695;BME280;6919;52.344;14.518;2024-02-21T10:34:42;100799.16;;;11.75;100.00
13695;BME280;6919;52.344;14.518;2024-02-21T10:37:12;100804.91;;;12.06;100.00
13695;BME280;6919;52.344;14.518;2024-02-21T10:39:42;100804.00;;;11.97;100.00
13695;BME280;6919;52.344;14.518;2024-02-21T10:42:12;100798.94;;;11.94;100.00
13695;BME280;6919;52.344;14.518;2024-02-21T10:44:41;100802.09;;;11.89;100.00
13695;BME280;6919;52.344;14.518;2024-02-21T10:47:12;100787.56;;;11.57;100.00
13695;BME280;6919;52.344;14.518;2024-02-21T10:49:45;100788.28;;;11.84;100.00
13695;BME280;6919;52.344;14.518;2024-02-21T10:52:24;100793.88;;;12.17;100.00
13695;BME280;6919;52.344;14.518;2024-02-21T10:54:58;100799.66;;;11.78;100.00
13695;BME280;6919;52.344;14.518;2024-02-21T10:57:28;100798.38;;;11.47;100.00
13695;BME280;6919;52.344;14.518;2024-02-21T10:59:59;100796.44;;;12.01;100.00
13695;BME280;6919;52.344;14.518;2024-02-21T11:02:28;100794.25;;;11.96;100.00
13695;BME280;6919;52.344;14.518;2024-02-21T11:05:01;100789.59;;;12.06;100.00
13695;BME280;6919;52.344;14.518;2024-02-21T11:07:36;100783.97;;;11.92;100.00
13695;BME280;6919;52.344;14.518;2024-02-21T11:10:06;100776.06;;;12.16;100.00
13695;BME280;6919;52.344;14.518;2024-02-21T11:12:48;100785.44;;;12.12;100.00
13695;BME280;6919;52.344;14.518;2024-02-21T11:15:16;100780.34;;;12.34;100.00
13695;BME280;6919;52.344;14.518;2024-02-21T11:17:54;100778.00;;;12.31;100.00
13695;BME280;6919;52.344;14.518;2024-02-21T11:20:37;100761.31;;;12.28;100.00
13695;BME280;6919;52.344;14.518;2024-02-21T11:23:06;100747.88;;;12.28;100.00
13695;BME280;6919;52.344;14.518;2024-02-21T11:25:34;100746.38;;;12.33;100.00
13695;BME280;6919;52.344;14.518;2024-02-21T11:28:04;100750.66;;;12.44;100.00
13695;BME280;6919;52.344;14.518;2024-02-21T11:30:36;100742.09;;;12.15;100.00
13695;BME280;6919;52.344;14.518;2024-02-21T11:33:07;100744.84;;;12.23;100.00
13695;BME280;6919;52.344;14.518;2024-02-21T11:35:37;100729.66;;;12.14;100.00
13695;BME280;6919;52.344;14.518;2024-02-21T11:38:10;100733.91;;;12.58;100.00
13695;BME280;6919;52.344;14.518;2024-02-21T11:40:45;100730.50;;;12.48;100.00
13695;BME280;6919;52.344;14.518;2024-02-21T11:43:15;100728.31;;;12.51;100.00
13695;BME280;6919;52.344;14.518;2024-02-21T11:45:43;100700.19;;;12.38;100.00
13695;BME280;6919;52.344;14.518;2024-02-21T11:48:11;100698.00;;;12.33;100.00
13695;BME280;6919;52.344;14.518;2024-02-21T11:50:41;100689.63;;;11.95;100.00
13695;BME280;6919;52.344;14.518;2024-02-21T11:53:10;100696.00;;;12.43;100.00
13695;BME280;6919;52.344;14.518;2024-02-21T11:55:38;100701.72;;;12.40;100.00
13695;BME280;6919;52.344;14.518;2024-02-21T11:58:07;100684.91;;;11.97;100.00
13695;BME280;6919;52.344;14.518;2024-02-21T12:00:35;100689.19;;;12.73;100.00
13695;BME280;6919;52.344;14.518;2024-02-21T12:03:04;100688.50;;;12.55;100.00
13695;BME280;6919;52.344;14.518;2024-02-21T12:05:34;100689.41;;;13.11;100.00
13695;BME280;6919;52.344;14.518;2024-02-21T12:08:04;100679.13;;;13.31;100.00
13695;BME280;6919;52.344;14.518;2024-02-21T12:10:34;100681.84;;;13.15;100.00
13695;BME280;6919;52.344;14.518;2024-02-21T12:13:07;100681.28;;;12.71;100.00
13695;BME280;6919;52.344;14.518;2024-02-21T12:15:36;100675.75;;;12.73;100.00
13695;BME280;6919;52.344;14.518;2024-02-21T12:18:04;100675.94;;;13.43;100.00
13695;BME280;6919;52.344;14.518;2024-02-21T12:20:33;100675.63;;;12.98;100.00
13695;BME280;6919;52.344;14.518;2024-02-21T12:23:09;100663.97;;;12.82;100.00
13695;BME280;6919;52.344;14.518;2024-02-21T12:25:39;100664.31;;;12.95;100.00
13695;BME280;6919;52.344;14.518;2024-02-21T12:28:07;100658.97;;;13.03;100.00
13695;BME280;6919;52.344;14.518;2024-02-21T12:30:36;100656.06;;;12.96;100.00
13695;BME280;6919;52.344;14.518;2024-02-21T12:33:06;100652.19;;;12.67;100.00
13695;BME280;6919;52.344;14.518;2024-02-21T12:35:35;100652.91;;;13.33;100.00
13695;BME280;6919;52.344;14.518;2024-02-21T12:38:04;100655.72;;;13.47;100.00
13695;BME280;6919;52.344;14.518;2024-02-21T12:40:33;100643.91;;;13.56;100.00
13695;BME280;6919;52.344;14.518;2024-02-21T12:43:02;100636.72;;;13.33;100.00
13695;BME280;6919;52.344;14.518;2024-02-21T12:45:31;100641.31;;;13.16;100.00
13695;BME280;6919;52.344;14.518;2024-02-21T12:48:00;100637.03;;;13.46;100.00
13695;BME280;6919;52.344;14.518;2024-02-21T12:50:29;100635.97;;;13.71;100.00
13695;BME280;6919;52.344;14.518;2024-02-21T12:52:58;100626.28;;;13.30;100.00